sensor_id;sensor_type;location;lat;lon;timestamp;P1;durP1;ratioP1;P2;durP2;ratioP2
28009;SDS011;15334;49.494;8.410;2022-11-20T00:01:32;28.27;;;12.73;;
28009;SDS011;15334;49.494;8.410;2022-11-20T00:04:01;27.10;;;13.10;;
28009;SDS011;15334;49.494;8.410;2022-11-20T00:06:29;29.83;;;12.80;;
28009;SDS011;15334;49.494;8.410;2022-11-20T00:09:00;28.15;;;13.07;;
28009;SDS011;15334;49.494;8.410;2022-11-20T00:11:29;32.13;;;12.90;;
28009;SDS011;15334;49.494;8.410;2022-11-20T00:13:59;33.78;;;13.55;;
28009;SDS011;15334;49.494;8.410;2022-11-20T00:16:31;37.15;;;14.52;;
28009;SDS011;15334;49.494;8.410;2022-11-20T00:19:01;31.05;;;11.57;;
28009;SDS011;15334;49.494;8.410;2022-11-20T00:21:29;33.33;;;12.93;;
28009;SDS011;15334;49.494;8.410;2022-11-20T00:23:58;31.63;;;13.95;;
28009;SDS011;15334;49.494;8.410;2022-11-20T00:26:27;34.05;;;13.38;;
28009;SDS011;15334;49.494;8.410;2022-11-20T00:28:57;34.55;;;13.43;;
28009;SDS011;15334;49.494;8.410;2022-11-20T00:31:26;32.13;;;13.23;;
28009;SDS011;15334;49.494;8.410;2022-11-20T00:33:57;32.67;;;13.50;;
28009;SDS011;15334;49.494;8.410;2022-11-20T00:36:25;31.65;;;14.13;;
28009;SDS011;15334;49.494;8.410;2022-11-20T00:38:55;29.88;;;13.55;;
28009;SDS011;15334;49.494;8.410;2022-11-20T00:41:25;28.05;;;11.77;;
28009;SDS011;15334;49.494;8.410;2022-11-20T00:43:56;39.63;;;15.73;;
28009;SDS011;15334;49.494;8.410;2022-11-20T00:46:25;39.78;;;14.45;;
28009;SDS011;15334;49.494;8.410;2022-11-20T00:48:56;37.83;;;14.43;;
28009;SDS011;15334;49.494;8.410;2022-11-20T00:53:56;31.42;;;12.65;;
28009;SDS011;15334;49.494;8.410;2022-11-20T00:56:26;34.10;;;12.50;;
28009;SDS011;15334;49.494;8.410;2022-11-20T00:58:54;33.10;;;14.25;;
28009;SDS011;15334;49.494;8.410;2022-11-20T01:01:23;37.40;;;13.75;;
28009;SDS011;15334;49.494;8.410;2022-11-20T01:06:27;40.75;;;13.82;;
28009;SDS011;15334;49.494;8.410;2022-11-20T01:08:57;32.97;;;13.80;;
28009;SDS011;15334;49.494;8.410;2022-11-20T01:11:27;35.05;;;15.75;;
28009;SDS011;15334;49.494;8.410;2022-11-20T01:13:57;34.63;;;14.77;;
28009;SDS011;15334;49.494;8.410;2022-11-20T01:16:26;37.10;;;14.27;;
28009;SDS011;15334;49.494;8.410;2022-11-20T01:18:58;41.92;;;14.38;;
28009;SDS011;15334;49.494;8.410;2022-11-20T01:21:28;36.67;;;14.80;;
28009;SDS011;15334;49.494;8.410;2022-11-20T01:24:17;36.63;;;13.85;;
28009;SDS011;15334;49.494;8.410;2022-11-20T01:26:47;36.45;;;12.98;;
28009;SDS011;15334;49.494;8.410;2022-11-20T01:29:17;33.97;;;14.43;;
28009;SDS011;15334;49.494;8.410;2022-11-20T01:31:47;33.22;;;14.20;;
28009;SDS011;15334;49.494;8.410;2022-11-20T01:34:18;31.65;;;13.10;;
28009;SDS011;15334;49.494;8.410;2022-11-20T01:36:49;33.50;;;13.35;;
28009;SDS011;15334;49.494;8.410;2022-11-20T01:39:19;35.10;;;14.30;;
28009;SDS011;15334;49.494;8.410;2022-11-20T01:41:50;35.58;;;12.75;;
28009;SDS011;15334;49.494;8.410;2022-11-20T01:44:45;30.00;;;14.50;;
28009;SDS011;15334;49.494;8.410;2022-11-20T01:47:19;37.08;;;13.98;;
28009;SDS011;15334;49.494;8.410;2022-11-20T01:49:54;36.30;;;14.27;;
28009;SDS011;15334;49.494;8.410;2022-11-20T01:52:26;29.98;;;13.20;;
28009;SDS011;15334;49.494;8.410;2022-11-20T01:54:59;30.38;;;13.15;;
28009;SDS011;15334;49.494;8.410;2022-11-20T01:57:31;32.97;;;13.30;;
28009;SDS011;15334;49.494;8.410;2022-11-20T02:00:04;36.42;;;14.35;;
28009;SDS011;15334;49.494;8.410;2022-11-20T02:02:36;28.90;;;12.70;;
28009;SDS011;15334;49.494;8.410;2022-11-20T02:05:11;32.60;;;14.77;;
28009;SDS011;15334;49.494;8.410;2022-11-20T02:07:46;30.40;;;12.35;;
28009;SDS011;15334;49.494;8.410;2022-11-20T02:10:15;31.73;;;13.00;;
28009;SDS011;15334;49.494;8.410;2022-11-20T02:12:44;31.50;;;12.27;;
28009;SDS011;15334;49.494;8.410;2022-11-20T02:15:29;39.22;;;15.00;;
28009;SDS011;15334;49.494;8.410;2022-11-20T02:18:00;38.28;;;15.05;;
28009;SDS011;15334;49.494;8.410;2022-11-20T02:20:30;37.03;;;14.65;;
28009;SDS011;15334;49.494;8.410;2022-11-20T02:22:59;32.95;;;13.45;;
28009;SDS011;15334;49.494;8.410;2022-11-20T02:25:34;28.20;;;12.10;;
28009;SDS011;15334;49.494;8.410;2022-11-20T02:28:04;29.85;;;12.57;;
28009;SDS011;15334;49.494;8.410;2022-11-20T02:30:33;34.80;;;14.23;;
28009;SDS011;15334;49.494;8.410;2022-11-20T02:33:02;32.15;;;13.68;;
28009;SDS011;15334;49.494;8.410;2022-11-20T02:35:42;27.95;;;12.88;;
28009;SDS011;15334;49.494;8.410;2022-11-20T02:38:11;33.83;;;14.35;;
28009;SDS011;15334;49.494;8.410;2022-11-20T02:40:45;33.05;;;13.02;;
28009;SDS011;15334;49.494;8.410;2022-11-20T02:43:21;32.90;;;12.95;;
28009;SDS011;15334;49.494;8.410;2022-11-20T02:45:49;32.33;;;15.40;;
28009;SDS011;15334;49.494;8.410;2022-11-20T02:48:17;30.33;;;12.25;;
28009;SDS011;15334;49.494;8.410;2022-11-20T02:50:46;30.30;;;12.50;;
28009;SDS011;15334;49.494;8.410;2022-11-20T02:53:14;28.33;;;11.88;;
28009;SDS011;15334;49.494;8.410;2022-11-20T02:55:44;31.30;;;12.57;;
28009;SDS011;15334;49.494;8.410;2022-11-20T02:58:12;25.63;;;11.63;;
28009;SDS011;15334;49.494;8.410;2022-11-20T03:00:41;28.00;;;11.43;;
28009;SDS011;15334;49.494;8.410;2022-11-20T03:03:09;29.33;;;12.45;;
28009;SDS011;15334;49.494;8.410;2022-11-20T03:05:37;30.23;;;13.75;;
28009;SDS011;15334;49.494;8.410;2022-11-20T03:08:06;36.08;;;14.63;;
28009;SDS011;15334;49.494;8.410;2022-11-20T03:10:34;33.80;;;13.50;;
28009;SDS011;15334;49.494;8.410;2022-11-20T03:13:03;36.03;;;14.45;;
28009;SDS011;15334;49.494;8.410;2022-11-20T03:15:32;33.60;;;14.00;;
28009;SDS011;15334;49.494;8.410;2022-11-20T03:18:01;31.67;;;13.43;;
28009;SDS011;15334;49.494;8.410;2022-11-20T03:20:29;32.33;;;13.63;;
28009;SDS011;15334;49.494;8.410;2022-11-20T03:23:01;28.33;;;9.30;;
28009;SDS011;15334;49.494;8.410;2022-11-20T03:25:30;29.73;;;12.65;;
28009;SDS011;15334;49.494;8.410;2022-11-20T03:27:58;34.67;;;13.23;;
28009;SDS011;15334;49.494;8.410;2022-11-20T03:30:28;30.77;;;13.18;;
28009;SDS011;15334;49.494;8.410;2022-11-20T03:32:57;34.63;;;13.32;;
28009;SDS011;15334;49.494;8.410;2022-11-20T03:35:25;33.03;;;13.13;;
28009;SDS011;15334;49.494;8.410;2022-11-20T03:37:54;28.17;;;11.90;;
28009;SDS011;15334;49.494;8.410;2022-11-20T03:40:23;34.97;;;12.45;;
28009;SDS011;15334;49.494;8.410;2022-11-20T03:42:51;29.30;;;11.98;;
28009;SDS011;15334;49.494;8.410;2022-11-20T03:45:23;27.15;;;11.30;;
28009;SDS011;15334;49.494;8.410;2022-11-20T03:47:55;26.58;;;11.38;;
28009;SDS011;15334;49.494;8.410;2022-11-20T03:50:30;28.25;;;12.40;;
28009;SDS011;15334;49.494;8.410;2022-11-20T03:52:59;26.77;;;12.02;;
28009;SDS011;15334;49.494;8.410;2022-11-20T03:55:35;28.65;;;11.95;;
28009;SDS011;15334;49.494;8.410;2022-11-20T03:58:09;26.42;;;11.05;;
28009;SDS011;15334;49.494;8.410;2022-11-20T04:00:48;25.92;;;12.60;;
28009;SDS011;15334;49.494;8.410;2022-11-20T04:03:21;26.05;;;11.68;;
28009;SDS011;15334;49.494;8.410;2022-11-20T04:06:00;28.40;;;11.88;;
28009;SDS011;15334;49.494;8.410;2022-11-20T04:08:43;27.30;;;12.20;;
28009;SDS011;15334;49.494;8.410;2022-11-20T04:11:20;31.45;;;13.05;;
28009;SDS011;15334;49.494;8.410;2022-11-20T04:13:55;26.52;;;11.18;;
28009;SDS011;15334;49.494;8.410;2022-11-20T04:16:25;31.25;;;12.25;;
28009;SDS011;15334;49.494;8.410;2022-11-20T04:19:10;30.30;;;11.43;;
28009;SDS011;15334;49.494;8.410;2022-11-20T04:21:58;25.13;;;11.13;;
28009;SDS011;15334;49.494;8.410;2022-11-20T04:24:31;26.65;;;10.85;;
28009;SDS011;15334;49.494;8.410;2022-11-20T04:27:08;26.88;;;10.85;;
28009;SDS011;15334;49.494;8.410;2022-11-20T04:29:51;27.60;;;10.35;;
28009;SDS011;15334;49.494;8.410;2022-11-20T04:32:30;25.60;;;11.35;;
28009;SDS011;15334;49.494;8.410;2022-11-20T04:35:00;28.63;;;11.65;;
28009;SDS011;15334;49.494;8.410;2022-11-20T04:37:36;23.60;;;10.23;;
28009;SDS011;15334;49.494;8.410;2022-11-20T04:40:16;24.13;;;11.05;;
28009;SDS011;15334;49.494;8.410;2022-11-20T04:42:44;32.70;;;11.52;;
28009;SDS011;15334;49.494;8.410;2022-11-20T04:45:12;26.45;;;11.02;;
28009;SDS011;15334;49.494;8.410;2022-11-20T04:47:48;31.23;;;12.25;;
28009;SDS011;15334;49.494;8.410;2022-11-20T04:50:18;26.27;;;11.27;;
28009;SDS011;15334;49.494;8.410;2022-11-20T04:52:46;22.92;;;10.40;;
28009;SDS011;15334;49.494;8.410;2022-11-20T04:55:20;25.67;;;11.05;;
28009;SDS011;15334;49.494;8.410;2022-11-20T04:57:49;27.52;;;11.23;;
28009;SDS011;15334;49.494;8.410;2022-11-20T05:00:21;25.42;;;9.95;;
28009;SDS011;15334;49.494;8.410;2022-11-20T05:03:24;20.75;;;9.80;;
28009;SDS011;15334;49.494;8.410;2022-11-20T05:06:15;27.52;;;9.98;;
28009;SDS011;15334;49.494;8.410;2022-11-20T05:08:44;27.13;;;10.67;;
28009;SDS011;15334;49.494;8.410;2022-11-20T05:11:16;28.52;;;10.88;;
28009;SDS011;15334;49.494;8.410;2022-11-20T05:13:58;28.15;;;10.32;;
28009;SDS011;15334;49.494;8.410;2022-11-20T05:16:35;27.60;;;10.60;;
28009;SDS011;15334;49.494;8.410;2022-11-20T05:19:06;32.20;;;13.35;;
28009;SDS011;15334;49.494;8.410;2022-11-20T05:21:44;29.38;;;11.02;;
28009;SDS011;15334;49.494;8.410;2022-11-20T05:24:13;25.08;;;10.70;;
28009;SDS011;15334;49.494;8.410;2022-11-20T05:26:46;22.38;;;9.98;;
28009;SDS011;15334;49.494;8.410;2022-11-20T05:29:15;25.02;;;10.23;;
28009;SDS011;15334;49.494;8.410;2022-11-20T05:31:47;14.95;;;7.18;;
28009;SDS011;15334;49.494;8.410;2022-11-20T05:34:16;24.08;;;9.25;;
28009;SDS011;15334;49.494;8.410;2022-11-20T05:36:47;24.30;;;9.32;;
28009;SDS011;15334;49.494;8.410;2022-11-20T05:39:16;23.42;;;9.77;;
28009;SDS011;15334;49.494;8.410;2022-11-20T05:41:56;20.13;;;10.27;;
28009;SDS011;15334;49.494;8.410;2022-11-20T05:44:39;19.13;;;7.45;;
28009;SDS011;15334;49.494;8.410;2022-11-20T05:47:13;28.02;;;9.10;;
28009;SDS011;15334;49.494;8.410;2022-11-20T05:49:49;21.92;;;8.65;;
28009;SDS011;15334;49.494;8.410;2022-11-20T05:52:19;27.75;;;10.77;;
28009;SDS011;15334;49.494;8.410;2022-11-20T05:54:57;23.65;;;10.45;;
28009;SDS011;15334;49.494;8.410;2022-11-20T05:57:36;23.13;;;9.27;;
28009;SDS011;15334;49.494;8.410;2022-11-20T06:00:18;19.45;;;9.25;;
28009;SDS011;15334;49.494;8.410;2022-11-20T06:03:24;19.60;;;8.57;;
28009;SDS011;15334;49.494;8.410;2022-11-20T06:06:07;24.67;;;10.70;;
28009;SDS011;15334;49.494;8.410;2022-11-20T06:08:45;24.13;;;10.35;;
28009;SDS011;15334;49.494;8.410;2022-11-20T06:11:18;27.55;;;10.95;;
28009;SDS011;15334;49.494;8.410;2022-11-20T06:13:51;21.90;;;10.00;;
28009;SDS011;15334;49.494;8.410;2022-11-20T06:16:24;23.97;;;10.07;;
28009;SDS011;15334;49.494;8.410;2022-11-20T06:19:04;23.52;;;8.70;;
28009;SDS011;15334;49.494;8.410;2022-11-20T06:21:40;20.88;;;8.98;;
28009;SDS011;15334;49.494;8.410;2022-11-20T06:24:16;21.33;;;8.68;;
28009;SDS011;15334;49.494;8.410;2022-11-20T06:26:53;23.55;;;9.88;;
28009;SDS011;15334;49.494;8.410;2022-11-20T06:29:39;22.00;;;9.75;;
28009;SDS011;15334;49.494;8.410;2022-11-20T06:32:11;21.33;;;9.93;;
28009;SDS011;15334;49.494;8.410;2022-11-20T06:34:51;22.63;;;11.32;;
28009;SDS011;15334;49.494;8.410;2022-11-20T06:37:49;30.10;;;10.88;;
28009;SDS011;15334;49.494;8.410;2022-11-20T06:40:49;26.05;;;9.98;;
28009;SDS011;15334;49.494;8.410;2022-11-20T06:43:54;25.92;;;10.27;;
28009;SDS011;15334;49.494;8.410;2022-11-20T06:46:33;26.60;;;10.13;;
28009;SDS011;15334;49.494;8.410;2022-11-20T06:49:02;29.60;;;11.73;;
28009;SDS011;15334;49.494;8.410;2022-11-20T06:51:32;23.10;;;9.93;;
28009;SDS011;15334;49.494;8.410;2022-11-20T06:54:37;26.25;;;10.40;;
28009;SDS011;15334;49.494;8.410;2022-11-20T06:57:13;21.83;;;9.35;;
28009;SDS011;15334;49.494;8.410;2022-11-20T07:00:21;25.10;;;10.85;;
28009;SDS011;15334;49.494;8.410;2022-11-20T07:06:07;23.63;;;10.60;;
28009;SDS011;15334;49.494;8.410;2022-11-20T07:08:43;27.85;;;11.35;;
28009;SDS011;15334;49.494;8.410;2022-11-20T07:11:43;24.88;;;9.82;;
28009;SDS011;15334;49.494;8.410;2022-11-20T07:17:47;27.17;;;9.73;;
28009;SDS011;15334;49.494;8.410;2022-11-20T07:20:31;23.58;;;10.48;;
28009;SDS011;15334;49.494;8.410;2022-11-20T07:23:07;25.40;;;10.55;;
28009;SDS011;15334;49.494;8.410;2022-11-20T07:25:47;31.58;;;11.55;;
28009;SDS011;15334;49.494;8.410;2022-11-20T07:28:48;24.40;;;9.90;;
28009;SDS011;15334;49.494;8.410;2022-11-20T07:32:22;26.00;;;10.13;;
28009;SDS011;15334;49.494;8.410;2022-11-20T07:34:51;27.40;;;10.85;;
28009;SDS011;15334;49.494;8.410;2022-11-20T07:37:19;24.67;;;10.45;;
28009;SDS011;15334;49.494;8.410;2022-11-20T07:39:47;27.77;;;11.55;;
28009;SDS011;15334;49.494;8.410;2022-11-20T07:42:15;27.90;;;10.45;;
28009;SDS011;15334;49.494;8.410;2022-11-20T07:44:43;25.08;;;9.65;;
28009;SDS011;15334;49.494;8.410;2022-11-20T07:47:11;23.70;;;10.95;;
28009;SDS011;15334;49.494;8.410;2022-11-20T07:49:41;24.83;;;9.98;;
28009;SDS011;15334;49.494;8.410;2022-11-20T07:52:10;24.88;;;10.88;;
28009;SDS011;15334;49.494;8.410;2022-11-20T07:54:38;26.27;;;9.98;;
28009;SDS011;15334;49.494;8.410;2022-11-20T07:57:06;21.88;;;10.00;;
28009;SDS011;15334;49.494;8.410;2022-11-20T07:59:34;25.05;;;10.93;;
28009;SDS011;15334;49.494;8.410;2022-11-20T08:02:05;26.65;;;11.27;;
28009;SDS011;15334;49.494;8.410;2022-11-20T08:04:32;26.08;;;11.95;;
28009;SDS011;15334;49.494;8.410;2022-11-20T08:07:02;29.95;;;13.25;;
28009;SDS011;15334;49.494;8.410;2022-11-20T08:09:30;30.75;;;11.00;;
28009;SDS011;15334;49.494;8.410;2022-11-20T08:11:58;30.73;;;12.80;;
28009;SDS011;15334;49.494;8.410;2022-11-20T08:14:44;31.95;;;12.05;;
28009;SDS011;15334;49.494;8.410;2022-11-20T08:17:12;31.58;;;13.23;;
28009;SDS011;15334;49.494;8.410;2022-11-20T08:19:40;38.75;;;14.32;;
28009;SDS011;15334;49.494;8.410;2022-11-20T08:22:10;37.38;;;14.32;;
28009;SDS011;15334;49.494;8.410;2022-11-20T08:24:38;31.27;;;13.45;;
28009;SDS011;15334;49.494;8.410;2022-11-20T08:27:06;30.60;;;12.55;;
28009;SDS011;15334;49.494;8.410;2022-11-20T08:29:35;32.28;;;14.60;;
28009;SDS011;15334;49.494;8.410;2022-11-20T08:32:03;30.48;;;15.55;;
28009;SDS011;15334;49.494;8.410;2022-11-20T08:34:31;35.20;;;13.52;;
28009;SDS011;15334;49.494;8.410;2022-11-20T08:37:02;37.63;;;13.43;;
28009;SDS011;15334;49.494;8.410;2022-11-20T08:39:31;36.95;;;15.35;;
28009;SDS011;15334;49.494;8.410;2022-11-20T08:41:59;36.30;;;15.10;;
28009;SDS011;15334;49.494;8.410;2022-11-20T08:44:27;40.80;;;17.85;;
28009;SDS011;15334;49.494;8.410;2022-11-20T08:46:55;45.13;;;16.40;;
28009;SDS011;15334;49.494;8.410;2022-11-20T08:49:24;39.15;;;16.23;;
28009;SDS011;15334;49.494;8.410;2022-11-20T08:51:52;42.53;;;15.25;;
28009;SDS011;15334;49.494;8.410;2022-11-20T08:54:21;37.50;;;14.38;;
28009;SDS011;15334;49.494;8.410;2022-11-20T08:56:51;38.65;;;16.10;;
28009;SDS011;15334;49.494;8.410;2022-11-20T08:59:19;42.72;;;16.17;;
28009;SDS011;15334;49.494;8.410;2022-11-20T09:02:09;38.65;;;16.17;;
28009;SDS011;15334;49.494;8.410;2022-11-20T09:04:37;35.55;;;14.40;;
28009;SDS011;15334;49.494;8.410;2022-11-20T09:07:05;38.15;;;16.15;;
28009;SDS011;15334;49.494;8.410;2022-11-20T09:09:33;35.63;;;13.45;;
28009;SDS011;15334;49.494;8.410;2022-11-20T09:12:13;35.28;;;14.38;;
28009;SDS011;15334;49.494;8.410;2022-11-20T09:14:42;36.10;;;15.43;;
28009;SDS011;15334;49.494;8.410;2022-11-20T09:17:20;43.00;;;17.35;;
28009;SDS011;15334;49.494;8.410;2022-11-20T09:19:48;34.05;;;15.50;;
28009;SDS011;15334;49.494;8.410;2022-11-20T09:22:16;36.92;;;16.83;;
28009;SDS011;15334;49.494;8.410;2022-11-20T09:24:44;33.00;;;14.88;;
28009;SDS011;15334;49.494;8.410;2022-11-20T09:27:13;41.90;;;15.88;;
28009;SDS011;15334;49.494;8.410;2022-11-20T09:29:44;45.75;;;16.45;;
28009;SDS011;15334;49.494;8.410;2022-11-20T09:32:13;43.83;;;17.27;;
28009;SDS011;15334;49.494;8.410;2022-11-20T09:34:41;46.67;;;16.45;;
28009;SDS011;15334;49.494;8.410;2022-11-20T09:37:09;38.85;;;15.45;;
28009;SDS011;15334;49.494;8.410;2022-11-20T09:39:37;39.80;;;14.70;;
28009;SDS011;15334;49.494;8.410;2022-11-20T09:42:09;45.83;;;15.25;;
28009;SDS011;15334;49.494;8.410;2022-11-20T09:45:04;50.20;;;16.23;;
28009;SDS011;15334;49.494;8.410;2022-11-20T09:47:47;44.20;;;16.05;;
28009;SDS011;15334;49.494;8.410;2022-11-20T09:50:35;45.83;;;15.65;;
28009;SDS011;15334;49.494;8.410;2022-11-20T09:53:12;41.58;;;15.93;;
28009;SDS011;15334;49.494;8.410;2022-11-20T09:55:47;37.88;;;13.52;;
28009;SDS011;15334;49.494;8.410;2022-11-20T09:58:19;41.30;;;15.88;;
28009;SDS011;15334;49.494;8.410;2022-11-20T10:00:57;38.05;;;14.90;;
28009;SDS011;15334;49.494;8.410;2022-11-20T10:03:35;47.55;;;16.75;;
28009;SDS011;15334;49.494;8.410;2022-11-20T10:06:08;46.22;;;17.05;;
28009;SDS011;15334;49.494;8.410;2022-11-20T10:08:41;37.38;;;14.73;;
28009;SDS011;15334;49.494;8.410;2022-11-20T10:11:17;45.08;;;16.63;;
28009;SDS011;15334;49.494;8.410;2022-11-20T10:13:57;46.03;;;18.20;;
28009;SDS011;15334;49.494;8.410;2022-11-20T10:16:38;43.03;;;15.77;;
28009;SDS011;15334;49.494;8.410;2022-11-20T10:19:18;54.33;;;18.60;;
28009;SDS011;15334;49.494;8.410;2022-11-20T10:21:59;52.95;;;18.95;;
28009;SDS011;15334;49.494;8.410;2022-11-20T10:24:41;47.65;;;18.33;;
28009;SDS011;15334;49.494;8.410;2022-11-20T10:27:21;48.17;;;16.80;;
28009;SDS011;15334;49.494;8.410;2022-11-20T10:30:00;40.88;;;16.52;;
28009;SDS011;15334;49.494;8.410;2022-11-20T10:32:32;42.35;;;16.20;;
28009;SDS011;15334;49.494;8.410;2022-11-20T10:35:07;41.63;;;15.38;;
28009;SDS011;15334;49.494;8.410;2022-11-20T10:37:46;38.33;;;15.23;;
28009;SDS011;15334;49.494;8.410;2022-11-20T10:40:22;38.63;;;16.25;;
28009;SDS011;15334;49.494;8.410;2022-11-20T10:42:56;44.28;;;16.52;;
28009;SDS011;15334;49.494;8.410;2022-11-20T10:45:38;38.83;;;15.77;;
28009;SDS011;15334;49.494;8.410;2022-11-20T10:48:20;41.58;;;16.77;;
28009;SDS011;15334;49.494;8.410;2022-11-20T10:50:55;42.58;;;15.55;;
28009;SDS011;15334;49.494;8.410;2022-11-20T10:53:45;41.90;;;16.08;;
28009;SDS011;15334;49.494;8.410;2022-11-20T10:56:22;46.28;;;18.08;;
28009;SDS011;15334;49.494;8.410;2022-11-20T10:59:11;44.97;;;18.02;;
28009;SDS011;15334;49.494;8.410;2022-11-20T11:02:13;45.08;;;16.23;;
28009;SDS011;15334;49.494;8.410;2022-11-20T11:04:45;45.33;;;16.77;;
28009;SDS011;15334;49.494;8.410;2022-11-20T11:07:16;44.60;;;18.02;;
28009;SDS011;15334;49.494;8.410;2022-11-20T11:09:48;51.72;;;19.17;;
28009;SDS011;15334;49.494;8.410;2022-11-20T11:12:17;86.75;;;26.27;;
28009;SDS011;15334;49.494;8.410;2022-11-20T11:14:48;46.90;;;16.70;;
28009;SDS011;15334;49.494;8.410;2022-11-20T11:17:24;42.13;;;17.23;;
28009;SDS011;15334;49.494;8.410;2022-11-20T11:19:59;40.13;;;16.63;;
28009;SDS011;15334;49.494;8.410;2022-11-20T11:22:33;26.92;;;13.05;;
28009;SDS011;15334;49.494;8.410;2022-11-20T11:25:11;26.05;;;12.27;;
28009;SDS011;15334;49.494;8.410;2022-11-20T11:27:57;32.15;;;11.80;;
28009;SDS011;15334;49.494;8.410;2022-11-20T11:30:27;20.67;;;9.25;;
28009;SDS011;15334;49.494;8.410;2022-11-20T11:33:05;17.45;;;8.55;;
28009;SDS011;15334;49.494;8.410;2022-11-20T11:35:39;18.63;;;8.52;;
28009;SDS011;15334;49.494;8.410;2022-11-20T11:38:28;13.75;;;7.30;;
28009;SDS011;15334;49.494;8.410;2022-11-20T11:40:58;14.50;;;7.53;;
28009;SDS011;15334;49.494;8.410;2022-11-20T11:43:26;15.18;;;7.50;;
28009;SDS011;15334;49.494;8.410;2022-11-20T11:46:28;18.48;;;8.25;;
28009;SDS011;15334;49.494;8.410;2022-11-20T11:48:59;18.20;;;8.82;;
28009;SDS011;15334;49.494;8.410;2022-11-20T11:51:34;15.38;;;7.30;;
28009;SDS011;15334;49.494;8.410;2022-11-20T11:54:12;16.77;;;8.32;;
28009;SDS011;15334;49.494;8.410;2022-11-20T11:56:46;17.42;;;8.38;;
28009;SDS011;15334;49.494;8.410;2022-11-20T11:59:16;17.33;;;8.27;;
28009;SDS011;15334;49.494;8.410;2022-11-20T12:01:51;17.10;;;9.05;;
28009;SDS011;15334;49.494;8.410;2022-11-20T12:04:41;23.15;;;9.23;;
28009;SDS011;15334;49.494;8.410;2022-11-20T12:07:14;19.42;;;8.35;;
28009;SDS011;15334;49.494;8.410;2022-11-20T12:10:11;12.88;;;6.05;;
28009;SDS011;15334;49.494;8.410;2022-11-20T12:12:44;12.70;;;6.00;;
28009;SDS011;15334;49.494;8.410;2022-11-20T12:15:18;14.90;;;6.47;;
28009;SDS011;15334;49.494;8.410;2022-11-20T12:17:53;12.95;;;6.82;;
28009;SDS011;15334;49.494;8.410;2022-11-20T12:20:22;11.82;;;6.15;;
28009;SDS011;15334;49.494;8.410;2022-11-20T12:22:56;13.18;;;7.30;;
28009;SDS011;15334;49.494;8.410;2022-11-20T12:25:34;12.70;;;6.32;;
28009;SDS011;15334;49.494;8.410;2022-11-20T12:30:58;11.15;;;6.28;;
28009;SDS011;15334;49.494;8.410;2022-11-20T12:36:28;12.07;;;5.97;;
28009;SDS011;15334;49.494;8.410;2022-11-20T12:39:08;13.10;;;7.05;;
28009;SDS011;15334;49.494;8.410;2022-11-20T12:41:58;17.33;;;7.55;;
28009;SDS011;15334;49.494;8.410;2022-11-20T12:45:09;12.68;;;5.93;;
28009;SDS011;15334;49.494;8.410;2022-11-20T12:51:00;14.82;;;6.15;;
28009;SDS011;15334;49.494;8.410;2022-11-20T12:54:02;14.52;;;6.35;;
28009;SDS011;15334;49.494;8.410;2022-11-20T12:56:56;13.38;;;6.32;;
28009;SDS011;15334;49.494;8.410;2022-11-20T12:59:33;12.35;;;6.13;;
28009;SDS011;15334;49.494;8.410;2022-11-20T13:02:18;15.18;;;5.70;;
28009;SDS011;15334;49.494;8.410;2022-11-20T13:04:57;10.98;;;5.10;;
28009;SDS011;15334;49.494;8.410;2022-11-20T13:07:35;10.77;;;5.35;;
28009;SDS011;15334;49.494;8.410;2022-11-20T13:10:05;14.13;;;5.13;;
28009;SDS011;15334;49.494;8.410;2022-11-20T13:12:47;9.25;;;4.55;;
28009;SDS011;15334;49.494;8.410;2022-11-20T13:15:26;5.40;;;2.95;;
28009;SDS011;15334;49.494;8.410;2022-11-20T13:18:02;9.20;;;3.10;;
28009;SDS011;15334;49.494;8.410;2022-11-20T13:20:32;6.80;;;2.72;;
28009;SDS011;15334;49.494;8.410;2022-11-20T13:23:02;6.32;;;2.50;;
28009;SDS011;15334;49.494;8.410;2022-11-20T13:25:32;6.10;;;2.33;;
28009;SDS011;15334;49.494;8.410;2022-11-20T13:28:03;7.50;;;2.60;;
28009;SDS011;15334;49.494;8.410;2022-11-20T13:30:52;6.53;;;2.72;;
28009;SDS011;15334;49.494;8.410;2022-11-20T13:33:23;7.63;;;2.08;;
28009;SDS011;15334;49.494;8.410;2022-11-20T13:35:56;3.53;;;1.77;;
28009;SDS011;15334;49.494;8.410;2022-11-20T13:38:26;5.60;;;2.40;;
28009;SDS011;15334;49.494;8.410;2022-11-20T13:41:00;6.68;;;1.73;;
28009;SDS011;15334;49.494;8.410;2022-11-20T13:43:49;1.90;;;1.38;;
28009;SDS011;15334;49.494;8.410;2022-11-20T13:46:19;4.43;;;1.70;;
28009;SDS011;15334;49.494;8.410;2022-11-20T13:48:50;4.45;;;1.50;;
28009;SDS011;15334;49.494;8.410;2022-11-20T13:51:24;3.10;;;1.33;;
28009;SDS011;15334;49.494;8.410;2022-11-20T13:57:34;5.22;;;1.55;;
28009;SDS011;15334;49.494;8.410;2022-11-20T14:00:23;4.35;;;0.90;;
28009;SDS011;15334;49.494;8.410;2022-11-20T14:03:06;2.03;;;1.25;;
28009;SDS011;15334;49.494;8.410;2022-11-20T14:05:39;3.20;;;1.42;;
28009;SDS011;15334;49.494;8.410;2022-11-20T14:08:19;5.22;;;1.40;;
28009;SDS011;15334;49.494;8.410;2022-11-20T14:11:11;5.28;;;1.15;;
28009;SDS011;15334;49.494;8.410;2022-11-20T14:13:57;3.05;;;1.15;;
28009;SDS011;15334;49.494;8.410;2022-11-20T14:16:26;1.33;;;0.93;;
28009;SDS011;15334;49.494;8.410;2022-11-20T14:18:56;4.35;;;1.15;;
28009;SDS011;15334;49.494;8.410;2022-11-20T14:21:38;1.65;;;0.93;;
28009;SDS011;15334;49.494;8.410;2022-11-20T14:24:06;3.17;;;0.80;;
28009;SDS011;15334;49.494;8.410;2022-11-20T14:26:38;4.95;;;1.50;;
28009;SDS011;15334;49.494;8.410;2022-11-20T14:29:12;4.05;;;1.10;;
28009;SDS011;15334;49.494;8.410;2022-11-20T14:31:41;6.45;;;1.17;;
28009;SDS011;15334;49.494;8.410;2022-11-20T14:34:20;2.53;;;0.95;;
28009;SDS011;15334;49.494;8.410;2022-11-20T14:36:52;0.93;;;0.70;;
28009;SDS011;15334;49.494;8.410;2022-11-20T14:39:25;1.95;;;1.02;;
28009;SDS011;15334;49.494;8.410;2022-11-20T14:41:56;5.75;;;1.75;;
28009;SDS011;15334;49.494;8.410;2022-11-20T14:44:27;2.45;;;1.13;;
28009;SDS011;15334;49.494;8.410;2022-11-20T14:46:58;2.55;;;1.10;;
28009;SDS011;15334;49.494;8.410;2022-11-20T14:49:28;4.00;;;1.10;;
28009;SDS011;15334;49.494;8.410;2022-11-20T14:51:58;1.77;;;0.95;;
28009;SDS011;15334;49.494;8.410;2022-11-20T14:54:28;3.22;;;1.00;;
28009;SDS011;15334;49.494;8.410;2022-11-20T14:56:57;5.13;;;1.02;;
28009;SDS011;15334;49.494;8.410;2022-11-20T14:59:28;1.80;;;0.88;;
28009;SDS011;15334;49.494;8.410;2022-11-20T15:01:59;1.48;;;1.00;;
28009;SDS011;15334;49.494;8.410;2022-11-20T15:04:28;10.52;;;1.42;;
28009;SDS011;15334;49.494;8.410;2022-11-20T15:06:57;3.83;;;1.35;;
28009;SDS011;15334;49.494;8.410;2022-11-20T15:09:26;3.55;;;1.58;;
28009;SDS011;15334;49.494;8.410;2022-11-20T15:11:55;2.67;;;1.42;;
28009;SDS011;15334;49.494;8.410;2022-11-20T15:14:25;4.80;;;1.40;;
28009;SDS011;15334;49.494;8.410;2022-11-20T15:16:56;2.78;;;1.42;;
28009;SDS011;15334;49.494;8.410;2022-11-20T15:19:25;1.67;;;0.85;;
28009;SDS011;15334;49.494;8.410;2022-11-20T15:22:00;4.13;;;1.45;;
28009;SDS011;15334;49.494;8.410;2022-11-20T15:24:31;4.60;;;1.42;;
28009;SDS011;15334;49.494;8.410;2022-11-20T15:27:01;3.85;;;1.48;;
28009;SDS011;15334;49.494;8.410;2022-11-20T15:29:32;3.35;;;1.40;;
28009;SDS011;15334;49.494;8.410;2022-11-20T15:32:00;3.85;;;1.52;;
28009;SDS011;15334;49.494;8.410;2022-11-20T15:34:38;2.22;;;1.20;;
28009;SDS011;15334;49.494;8.410;2022-11-20T15:37:13;4.28;;;1.50;;